createdAt,value
2022-10-05T00:01:35.515Z,14.85
2022-10-05T00:04:21.756Z,13.65
2022-10-05T00:07:00.969Z,13.98
2022-10-05T00:09:32.526Z,13.65
2022-10-05T00:11:59.893Z,13.82
2022-10-05T00:14:36.785Z,15.60
2022-10-05T00:17:05.671Z,14.80
2022-10-05T00:19:39.094Z,13.30
2022-10-05T00:22:09.300Z,14.05
2022-10-05T00:24:36.726Z,13.77
2022-10-05T00:27:15.219Z,12.95
2022-10-05T00:29:43.484Z,12.60
2022-10-05T00:32:10.948Z,12.57
2022-10-05T00:34:39.136Z,12.50
2022-10-05T00:37:07.102Z,11.35
2022-10-05T00:39:39.106Z,11.52
2022-10-05T00:42:50.601Z,11.18
2022-10-05T00:45:38.218Z,10.13
2022-10-05T00:48:41.380Z,11.30
2022-10-05T00:51:39.050Z,9.98
2022-10-05T00:54:27.937Z,10.10
2022-10-05T00:56:58.028Z,9.85
2022-10-05T01:00:10.096Z,10.68
2022-10-05T01:03:08.033Z,9.73
2022-10-05T01:06:26.075Z,10.65
2022-10-05T01:09:19.872Z,10.38
2022-10-05T01:12:10.634Z,10.80
2022-10-05T01:14:58.318Z,10.93
2022-10-05T01:17:53.631Z,10.45
2022-10-05T01:20:44.427Z,10.65
2022-10-05T01:23:48.682Z,10.43
2022-10-05T01:26:37.149Z,10.52
2022-10-05T01:29:25.413Z,10.88
2022-10-05T01:32:21.120Z,11.27
2022-10-05T01:35:20.751Z,10.20
2022-10-05T01:38:09.769Z,10.77
2022-10-05T01:41:04.084Z,10.88
2022-10-05T01:43:43.551Z,10.35
2022-10-05T01:46:34.955Z,10.50
2022-10-05T01:49:36.215Z,9.95
2022-10-05T01:52:24.167Z,11.05
2022-10-05T01:55:18.472Z,10.82
2022-10-05T01:58:12.771Z,10.05
2022-10-05T02:01:04.894Z,10.38
2022-10-05T02:03:47.317Z,10.98
2022-10-05T02:06:30.877Z,10.48
2022-10-05T02:09:21.764Z,11.77
2022-10-05T02:12:05.752Z,11.95
2022-10-05T02:14:42.499Z,12.13
2022-10-05T02:17:24.316Z,12.82
2022-10-05T02:19:59.389Z,12.02
2022-10-05T02:22:40.802Z,11.43
2022-10-05T02:25:17.625Z,10.85
2022-10-05T02:28:14.148Z,11.23
2022-10-05T02:31:25.009Z,11.77
2022-10-05T02:33:52.422Z,11.57
2022-10-05T02:36:36.434Z,13.30
2022-10-05T02:39:29.524Z,11.15
2022-10-05T02:42:11.143Z,11.98
2022-10-05T02:45:22.113Z,11.75
2022-10-05T02:48:22.493Z,11.52
2022-10-05T02:51:58.228Z,11.48
2022-10-05T02:55:23.254Z,12.10
2022-10-05T02:58:27.070Z,11.60
2022-10-05T03:01:38.725Z,11.82
2022-10-05T03:04:35.791Z,12.30
2022-10-05T03:07:12.482Z,11.32
2022-10-05T03:10:05.768Z,11.43
2022-10-05T03:12:58.192Z,11.65
2022-10-05T03:15:31.708Z,10.95
2022-10-05T03:18:35.743Z,10.75
2022-10-05T03:21:40.350Z,10.50
2022-10-05T03:24:31.332Z,10.32
2022-10-05T03:27:37.440Z,10.82
2022-10-05T03:30:19.605Z,10.98
2022-10-05T03:33:10.443Z,10.68
2022-10-05T03:35:58.289Z,10.98
2022-10-05T03:38:48.473Z,11.60
2022-10-05T03:41:31.415Z,10.18
2022-10-05T03:44:42.838Z,12.55
2022-10-05T03:47:47.892Z,11.32
2022-10-05T03:50:47.855Z,10.45
2022-10-05T03:53:28.283Z,9.90
2022-10-05T03:56:20.537Z,9.93
2022-10-05T03:59:00.232Z,9.52
2022-10-05T04:01:43.265Z,8.63
2022-10-05T04:04:23.821Z,9.60
2022-10-05T04:06:55.465Z,8.70
2022-10-05T04:09:42.803Z,9.35
2022-10-05T04:12:25.776Z,9.35
2022-10-05T04:15:03.771Z,10.15
2022-10-05T04:17:47.860Z,10.40
2022-10-05T04:20:45.153Z,9.55
2022-10-05T04:24:11.741Z,9.30
2022-10-05T04:27:00.272Z,9.50
2022-10-05T04:29:42.291Z,9.38
2022-10-05T04:32:42.002Z,11.02
2022-10-05T04:35:27.906Z,10.40
2022-10-05T04:38:34.872Z,10.77
2022-10-05T04:41:33.590Z,10.85
2022-10-05T04:44:39.157Z,10.80
2022-10-05T04:47:40.242Z,10.40
2022-10-05T04:50:47.626Z,10.43
2022-10-05T04:53:45.726Z,9.38
2022-10-05T04:56:29.592Z,10.50
2022-10-05T04:59:38.948Z,9.38
2022-10-05T05:02:40.334Z,9.68
2022-10-05T05:05:58.758Z,10.05
2022-10-05T05:09:26.247Z,9.70
2022-10-05T05:12:18.959Z,9.93
2022-10-05T05:15:21.791Z,10.10
2022-10-05T05:18:01.157Z,9.60
2022-10-05T05:21:18.180Z,9.32
2022-10-05T05:24:01.847Z,9.65
2022-10-05T05:26:52.817Z,9.85
2022-10-05T05:30:03.026Z,9.50
2022-10-05T05:32:55.486Z,9.95
2022-10-05T05:36:06.135Z,9.95
2022-10-05T05:38:35.573Z,9.95
2022-10-05T05:41:25.224Z,10.18
2022-10-05T05:44:08.617Z,9.50
2022-10-05T05:47:05.587Z,10.55
2022-10-05T05:49:49.263Z,9.52
2022-10-05T05:52:25.861Z,10.70
2022-10-05T05:55:13.498Z,10.48
2022-10-05T05:58:08.460Z,10.30
2022-10-05T06:01:01.056Z,10.77
2022-10-05T06:03:43.562Z,10.98
2022-10-05T06:06:17.850Z,10.93
2022-10-05T06:08:53.267Z,10.65
2022-10-05T06:11:30.920Z,11.07
2022-10-05T06:14:28.067Z,10.13
2022-10-05T06:17:24.725Z,11.10
2022-10-05T06:20:04.878Z,11.60
2022-10-05T06:22:49.346Z,11.15
2022-10-05T06:25:56.639Z,11.23
2022-10-05T06:28:27.404Z,9.73
2022-10-05T06:31:29.758Z,10.10
2022-10-05T06:34:38.203Z,9.35
2022-10-05T06:37:16.988Z,10.77
2022-10-05T06:40:01.731Z,10.00
2022-10-05T06:42:55.288Z,10.63
2022-10-05T06:45:43.213Z,10.52
2022-10-05T06:48:25.356Z,9.10
2022-10-05T06:51:34.801Z,9.82
2022-10-05T06:54:10.706Z,10.40
2022-10-05T06:57:02.296Z,8.93
2022-10-05T06:59:41.628Z,9.32
2022-10-05T07:02:30.708Z,8.70
2022-10-05T07:05:55.256Z,9.27
2022-10-05T07:08:59.477Z,9.40
2022-10-05T07:12:00.884Z,8.93
2022-10-05T07:14:46.513Z,8.15
2022-10-05T07:17:44.342Z,6.93
2022-10-05T07:21:21.578Z,6.63
2022-10-05T07:24:31.767Z,5.75
2022-10-05T07:27:23.633Z,6.25
2022-10-05T07:29:56.936Z,5.55
2022-10-05T07:32:40.304Z,5.55
2022-10-05T07:35:52.805Z,4.85
2022-10-05T07:38:45.149Z,4.82
2022-10-05T07:41:31.263Z,5.75
2022-10-05T07:44:14.463Z,4.97
2022-10-05T07:46:58.165Z,4.65
2022-10-05T07:50:02.573Z,5.78
2022-10-05T07:52:45.860Z,4.10
2022-10-05T07:55:23.649Z,3.72
2022-10-05T07:58:11.310Z,3.15
2022-10-05T08:01:00.944Z,3.13
2022-10-05T08:04:03.403Z,3.10
2022-10-05T08:06:56.689Z,2.85
2022-10-05T08:09:45.645Z,2.63
2022-10-05T08:12:34.200Z,3.40
2022-10-05T08:15:43.172Z,3.20
2022-10-05T08:18:56.835Z,5.82
2022-10-05T08:21:37.338Z,3.47
2022-10-05T08:24:17.057Z,3.00
2022-10-05T08:27:01.837Z,3.08
2022-10-05T08:30:03.854Z,2.80
2022-10-05T08:32:39.131Z,2.60
2022-10-05T08:35:37.807Z,3.22
2022-10-05T08:38:18.850Z,2.83
2022-10-05T08:41:26.268Z,3.28
2022-10-05T08:44:46.213Z,2.80
2022-10-05T08:47:48.990Z,3.40
2022-10-05T08:50:43.986Z,2.72
2022-10-05T08:54:01.606Z,3.08
2022-10-05T08:57:00.599Z,3.35
2022-10-05T09:00:15.432Z,4.50
2022-10-05T09:03:01.106Z,3.40
2022-10-05T09:06:05.044Z,4.03
2022-10-05T09:08:40.838Z,2.72
2022-10-05T09:11:32.371Z,4.03
2022-10-05T09:14:20.793Z,3.63
2022-10-05T09:16:56.432Z,3.70
2022-10-05T09:20:00.469Z,5.10
2022-10-05T09:22:55.071Z,3.50
2022-10-05T09:26:07.182Z,3.38
2022-10-05T09:29:10.881Z,5.05
2022-10-05T09:32:03.063Z,3.63
2022-10-05T09:34:58.836Z,3.65
2022-10-05T09:38:20.070Z,3.70
2022-10-05T09:41:43.413Z,3.10
2022-10-05T09:44:56.252Z,6.30
2022-10-05T09:47:59.898Z,4.20
2022-10-05T09:50:40.879Z,3.60
2022-10-05T09:54:05.082Z,3.67
2022-10-05T09:56:56.526Z,3.78
2022-10-05T09:59:48.061Z,3.33
2022-10-05T10:02:39.604Z,2.70
2022-10-05T10:05:17.080Z,3.47
2022-10-05T10:08:12.137Z,3.63
2022-10-05T10:11:32.818Z,3.58
2022-10-05T10:14:29.665Z,3.83
2022-10-05T10:17:32.331Z,3.72
2022-10-05T10:20:39.085Z,4.30
2022-10-05T10:23:24.411Z,3.25
2022-10-05T10:26:16.245Z,3.15
2022-10-05T10:29:16.185Z,3.17
2022-10-05T10:31:56.453Z,4.18
2022-10-05T10:34:54.301Z,3.67
2022-10-05T10:38:23.771Z,3.50
2022-10-05T10:41:21.940Z,3.42
2022-10-05T10:44:11.112Z,3.10
2022-10-05T10:47:15.468Z,3.17
2022-10-05T10:50:01.116Z,3.28
2022-10-05T10:52:53.906Z,3.17
2022-10-05T10:55:43.025Z,3.28
2022-10-05T10:59:02.994Z,3.47
2022-10-05T11:01:48.537Z,3.55
2022-10-05T11:04:19.159Z,3.42
2022-10-05T11:07:37.007Z,3.72
2022-10-05T11:10:26.130Z,3.03
2022-10-05T11:13:11.453Z,4.68
2022-10-05T11:15:56.253Z,2.67
2022-10-05T11:18:47.533Z,2.78
2022-10-05T11:21:36.795Z,3.03
2022-10-05T11:24:39.032Z,3.33
2022-10-05T11:27:27.523Z,2.67
2022-10-05T11:30:06.431Z,4.78
2022-10-05T11:32:42.179Z,2.60
2022-10-05T11:35:32.743Z,2.03
2022-10-05T11:38:57.152Z,2.40
2022-10-05T11:41:50.634Z,2.10
2022-10-05T11:44:49.006Z,2.28
2022-10-05T11:47:36.163Z,2.38
2022-10-05T11:50:23.247Z,2.40
2022-10-05T11:53:07.693Z,2.10
2022-10-05T11:56:00.699Z,2.35
2022-10-05T11:59:01.827Z,2.20
2022-10-05T12:01:36.442Z,2.05
2022-10-05T12:04:25.185Z,2.42
2022-10-05T12:07:03.050Z,2.10
2022-10-05T12:10:04.878Z,2.30
2022-10-05T12:13:21.697Z,2.28
2022-10-05T12:16:12.261Z,2.20
2022-10-05T12:19:09.871Z,2.20
2022-10-05T12:21:56.674Z,2.13
2022-10-05T12:24:48.451Z,2.42
2022-10-05T12:27:23.086Z,2.40
2022-10-05T12:30:29.499Z,1.80
2022-10-05T12:33:17.100Z,2.25
2022-10-05T12:35:48.963Z,2.63
2022-10-05T12:38:56.964Z,2.10
2022-10-05T12:41:38.952Z,2.58
2022-10-05T12:45:01.639Z,2.38
2022-10-05T12:48:01.126Z,2.50
2022-10-05T12:50:41.737Z,2.58
2022-10-05T12:53:51.978Z,2.40
2022-10-05T12:56:53.123Z,2.55
2022-10-05T12:59:43.391Z,2.38
2022-10-05T13:02:42.982Z,2.28
2022-10-05T13:05:10.401Z,2.70
2022-10-05T13:08:00.630Z,2.38
2022-10-05T13:10:48.308Z,2.50
2022-10-05T13:13:21.185Z,2.60
2022-10-05T13:15:48.535Z,2.42
2022-10-05T13:18:49.343Z,2.90
2022-10-05T13:21:26.757Z,2.70
2022-10-05T13:24:14.397Z,3.13
2022-10-05T13:26:53.687Z,2.30
2022-10-05T13:30:05.479Z,2.60
2022-10-05T13:32:41.181Z,2.63
2022-10-05T13:35:35.471Z,2.47
2022-10-05T13:38:47.355Z,2.50
2022-10-05T13:41:40.731Z,2.63
2022-10-05T13:44:42.867Z,2.95
2022-10-05T13:47:37.873Z,2.63
2022-10-05T13:50:48.582Z,2.90
2022-10-05T13:53:36.901Z,2.80
2022-10-05T13:56:12.663Z,3.10
2022-10-05T13:58:47.919Z,2.90
2022-10-05T14:01:30.925Z,3.05
2022-10-05T14:04:22.213Z,3.20
2022-10-05T14:06:52.661Z,3.28
2022-10-05T14:09:31.803Z,2.97
2022-10-05T14:12:05.317Z,2.85
2022-10-05T14:14:44.962Z,3.20
2022-10-05T14:17:42.615Z,2.67
2022-10-05T14:20:36.457Z,2.60
2022-10-05T14:23:18.434Z,2.95
2022-10-05T14:25:54.169Z,3.10
2022-10-05T14:28:31.441Z,2.80
2022-10-05T14:31:26.587Z,2.92
2022-10-05T14:33:54.157Z,2.67
2022-10-05T14:36:44.054Z,2.60
2022-10-05T14:39:13.683Z,2.28
2022-10-05T14:41:50.689Z,2.42
2022-10-05T14:47:31.737Z,2.78
2022-10-05T14:50:21.660Z,3.00
2022-10-05T14:53:21.523Z,2.60
2022-10-05T14:56:11.787Z,2.97
2022-10-05T14:58:58.027Z,2.47
2022-10-05T15:01:39.329Z,2.83
2022-10-05T15:04:43.885Z,2.67
2022-10-05T15:07:28.078Z,2.95
2022-10-05T15:10:26.921Z,2.50
2022-10-05T15:13:08.051Z,2.70
2022-10-05T15:15:59.669Z,2.38
2022-10-05T15:18:57.606Z,2.20
2022-10-05T15:21:30.573Z,2.60
2022-10-05T15:24:16.644Z,2.95
2022-10-05T15:26:54.572Z,3.28
2022-10-05T15:30:00.358Z,3.63
2022-10-05T15:33:15.211Z,3.85
2022-10-05T15:36:00.774Z,3.75
2022-10-05T15:39:10.671Z,3.30
2022-10-05T15:42:04.960Z,3.63
2022-10-05T15:44:56.966Z,3.80
2022-10-05T15:48:02.884Z,4.00
2022-10-05T15:50:45.736Z,3.70
2022-10-05T15:53:28.238Z,3.42
2022-10-05T15:56:20.250Z,3.45
2022-10-05T15:59:27.399Z,3.35
2022-10-05T16:02:07.109Z,3.65
2022-10-05T16:05:13.804Z,3.78
2022-10-05T16:08:12.237Z,3.90
2022-10-05T16:10:45.136Z,4.00
2022-10-05T16:13:49.657Z,3.80
2022-10-05T16:16:59.458Z,4.75
2022-10-05T16:19:46.198Z,4.30
2022-10-05T16:22:25.114Z,5.10
2022-10-05T16:25:40.192Z,6.03
2022-10-05T16:28:24.474Z,7.28
2022-10-05T16:31:06.815Z,7.97
2022-10-05T16:34:09.492Z,7.40
2022-10-05T16:37:42.579Z,6.30
2022-10-05T16:40:50.806Z,6.38
2022-10-05T16:43:49.555Z,5.63
2022-10-05T16:46:59.378Z,5.70
2022-10-05T16:49:48.934Z,6.00
2022-10-05T16:52:21.448Z,6.13
2022-10-05T16:55:03.019Z,5.60
2022-10-05T16:57:36.784Z,5.80
2022-10-05T17:00:16.010Z,6.00
2022-10-05T17:03:18.399Z,5.90
2022-10-05T17:05:55.822Z,5.90
2022-10-05T17:08:49.769Z,5.93
2022-10-05T17:12:13.927Z,6.55
2022-10-05T17:15:10.287Z,6.85
2022-10-05T17:18:00.999Z,7.10
2022-10-05T17:21:03.466Z,6.45
2022-10-05T17:23:53.956Z,6.13
2022-10-05T17:26:46.108Z,6.35
2022-10-05T17:29:27.982Z,7.00
2022-10-05T17:32:34.357Z,7.05
2022-10-05T17:35:01.635Z,6.78
2022-10-05T17:38:22.617Z,5.93
2022-10-05T17:41:26.802Z,6.03
2022-10-05T17:44:21.444Z,6.03
2022-10-05T17:46:52.693Z,6.57
2022-10-05T17:49:44.237Z,6.32
2022-10-05T17:53:05.118Z,7.45
2022-10-05T17:55:44.323Z,7.75
2022-10-05T17:58:55.493Z,7.57
2022-10-05T18:01:39.280Z,7.07
2022-10-05T18:04:12.882Z,7.55
2022-10-05T18:07:00.645Z,7.43
2022-10-05T18:09:30.926Z,7.45
2022-10-05T18:12:16.400Z,7.30
2022-10-05T18:15:21.380Z,7.45
2022-10-05T18:17:51.455Z,7.80
2022-10-05T18:20:26.497Z,7.40
2022-10-05T18:23:06.078Z,9.25
2022-10-05T18:25:52.841Z,8.73
2022-10-05T18:29:13.746Z,12.10
2022-10-05T18:32:04.816Z,11.82
2022-10-05T18:34:58.608Z,13.45
2022-10-05T18:38:02.076Z,12.98
2022-10-05T18:41:03.655Z,12.27
2022-10-05T18:43:57.813Z,13.38
2022-10-05T18:46:42.929Z,12.32
2022-10-05T18:49:53.049Z,12.57
2022-10-05T18:53:00.775Z,11.50
2022-10-05T18:55:39.453Z,11.45
2022-10-05T18:59:03.732Z,10.70
2022-10-05T19:01:48.886Z,10.68
2022-10-05T19:04:27.448Z,11.18
2022-10-05T19:07:04.917Z,10.68
2022-10-05T19:09:40.363Z,10.35
2022-10-05T19:12:45.029Z,11.68
2022-10-05T19:15:46.642Z,10.15
2022-10-05T19:18:41.519Z,10.50
2022-10-05T19:21:41.539Z,10.82
2022-10-05T19:24:37.614Z,9.23
2022-10-05T19:27:34.739Z,10.60
2022-10-05T19:30:25.215Z,11.40
2022-10-05T19:33:43.605Z,10.77
2022-10-05T19:36:49.114Z,11.55
2022-10-05T19:40:18.109Z,10.50
2022-10-05T19:43:12.330Z,11.02
2022-10-05T19:46:05.614Z,10.70
2022-10-05T19:48:46.662Z,10.70
2022-10-05T19:51:25.613Z,10.20
2022-10-05T19:53:56.158Z,11.05
2022-10-05T19:56:28.828Z,10.45
2022-10-05T19:58:57.514Z,10.45
2022-10-05T20:01:38.524Z,10.45
2022-10-05T20:04:05.886Z,9.95
2022-10-05T20:06:34.447Z,9.43
2022-10-05T20:09:21.821Z,10.52
2022-10-05T20:11:56.626Z,10.60
2022-10-05T20:14:31.859Z,10.88
2022-10-05T20:17:50.718Z,10.45
2022-10-05T20:20:45.801Z,10.50
2022-10-05T20:23:23.114Z,9.93
2022-10-05T20:26:30.498Z,9.63
2022-10-05T20:28:57.984Z,10.48
2022-10-05T20:31:25.241Z,10.20
2022-10-05T20:33:56.543Z,9.25
2022-10-05T20:36:24.122Z,10.30
2022-10-05T20:38:51.497Z,9.40
2022-10-05T20:41:18.704Z,8.65
2022-10-05T20:43:46.251Z,9.13
2022-10-05T20:46:13.516Z,8.27
2022-10-05T20:48:40.949Z,8.05
2022-10-05T20:51:08.777Z,8.43
2022-10-05T20:53:41.055Z,9.68
2022-10-05T20:56:08.454Z,8.45
2022-10-05T20:58:36.936Z,8.10
2022-10-05T21:01:16.603Z,8.38
2022-10-05T21:03:44.650Z,8.52
2022-10-05T21:06:12.619Z,8.45
2022-10-05T21:08:39.824Z,7.70
2022-10-05T21:11:09.054Z,8.02
2022-10-05T21:13:38.647Z,8.88
2022-10-05T21:16:08.910Z,8.00
2022-10-05T21:18:37.339Z,8.48
2022-10-05T21:21:04.960Z,8.93
2022-10-05T21:23:34.985Z,8.82
2022-10-05T21:26:02.860Z,9.55
2022-10-05T21:28:30.716Z,9.45
2022-10-05T21:30:58.634Z,10.57
2022-10-05T21:33:26.658Z,9.43
2022-10-05T21:35:54.367Z,9.40
2022-10-05T21:38:21.975Z,9.85
2022-10-05T21:40:49.234Z,9.45
2022-10-05T21:43:16.479Z,9.73
2022-10-05T21:45:45.826Z,11.30
2022-10-05T21:48:16.478Z,13.05
2022-10-05T21:50:45.167Z,12.95
2022-10-05T21:53:16.843Z,13.18
2022-10-05T21:55:48.806Z,13.77
2022-10-05T21:58:19.291Z,12.73
2022-10-05T22:00:46.640Z,13.52
2022-10-05T22:03:13.929Z,13.35
2022-10-05T22:05:41.601Z,13.43
2022-10-05T22:08:24.651Z,13.45
2022-10-05T22:10:54.742Z,13.02
2022-10-05T22:13:26.204Z,13.05
2022-10-05T22:15:56.339Z,13.15
2022-10-05T22:18:26.967Z,13.75
2022-10-05T22:20:54.671Z,13.60
2022-10-05T22:23:21.929Z,14.07
2022-10-05T22:25:49.454Z,14.07
2022-10-05T22:28:17.624Z,13.15
2022-10-05T22:30:46.144Z,12.55
2022-10-05T22:33:14.082Z,13.10
2022-10-05T22:35:41.561Z,12.00
2022-10-05T22:38:08.833Z,11.98
2022-10-05T22:40:36.926Z,11.73
2022-10-05T22:43:04.704Z,12.02
2022-10-05T22:45:32.870Z,10.20
2022-10-05T22:48:00.226Z,9.88
2022-10-05T22:50:27.664Z,8.25
2022-10-05T22:52:54.980Z,8.27
2022-10-05T22:55:22.263Z,8.20
2022-10-05T22:57:49.735Z,8.00
2022-10-05T23:00:17.151Z,7.22
2022-10-05T23:02:45.530Z,7.28
2022-10-05T23:05:13.499Z,7.75
2022-10-05T23:07:49.211Z,7.00
2022-10-05T23:10:18.918Z,7.72
2022-10-05T23:13:00.876Z,7.20
2022-10-05T23:15:28.790Z,7.50
2022-10-05T23:17:57.422Z,7.75
2022-10-05T23:20:25.031Z,7.57
2022-10-05T23:22:52.489Z,5.85
2022-10-05T23:25:22.232Z,5.38
2022-10-05T23:27:49.620Z,6.40
2022-10-05T23:30:17.491Z,5.80
2022-10-05T23:32:45.598Z,5.78
2022-10-05T23:35:13.826Z,5.68
2022-10-05T23:37:44.258Z,5.97
2022-10-05T23:40:14.350Z,6.03
2022-10-05T23:42:42.301Z,6.07
2022-10-05T23:45:12.418Z,6.18
2022-10-05T23:47:40.667Z,5.63
2022-10-05T23:50:09.782Z,5.70
2022-10-05T23:52:37.763Z,5.70
2022-10-05T23:55:06.347Z,5.65
2022-10-05T23:57:34.102Z,5.68
